This is the latest recevied weather packets stored in our database for station/object N9MXT-13. If no packets are shown the sender has not sent any weather packets the latest 10 day(s).
| Time | Temp. | Humidity | Pressure | Rain* | Wind** | Luminosity | Snow |
|---|---|---|---|---|---|---|---|
| 1777806299 | 7.78° C | 67% | 1013.1 hPa | 0 mm | - | - | - |
| 1777805700 | 7.78° C | 67% | 1013.1 hPa | 0 mm | - | - | - |
| 1777804799 | 7.22° C | 67% | 1013.3 hPa | 0 mm | - | - | - |
| 1777804499 | 7.22° C | 67% | 1013.2 hPa | 0 mm | - | - | - |
| 1777802999 | 7.78° C | 65% | 1013.4 hPa | 0 mm | - | - | - |
| 1777801199 | 7.22° C | 64% | 1013.6 hPa | 0 mm | - | - | - |
| 1777796400 | 8.33° C | 58% | 1014.1 hPa | 0 mm | - | - | - |
| 1777792200 | 8.33° C | 56% | 1014.2 hPa | 0 mm | - | - | - |
| 1777791899 | 8.33° C | 56% | 1014.3 hPa | 0 mm | - | - | - |
| 1777791298 | 7.78° C | 57% | 1014.5 hPa | 0 mm | - | - | - |
| 1777790997 | 7.78° C | 58% | 1014.5 hPa | 0 mm | - | - | - |
| 1777787700 | 7.22° C | 61% | 1014.8 hPa | 0 mm | - | - | - |
| 1777787401 | 7.22° C | 60% | 1014.9 hPa | 0 mm | - | - | - |
| 1777784700 | 7.22° C | 60% | 1015.2 hPa | 0 mm | - | - | - |
| 1777782601 | 7.78° C | 60% | 1015.3 hPa | 0 mm | - | - | - |
| 1777782300 | 7.78° C | 60% | 1015.3 hPa | 0 mm | - | - | - |
| 1777781100 | 7.78° C | 59% | 1015.5 hPa | 0 mm | - | - | - |
| 1777777500 | 8.33° C | 58% | 1015.8 hPa | 0 mm | - | - | - |
| 1777776901 | 8.33° C | 58% | 1015.8 hPa | 0 mm | - | - | - |
| 1777776300 | 8.33° C | 58% | 1015.9 hPa | 0 mm | - | - | - |
| 1777774500 | 8.89° C | 56% | 1015.8 hPa | 0 mm | - | - | - |
| 1777773900 | 9.44° C | 55% | 1015.7 hPa | 0 mm | - | - | - |
| 1777772700 | 10° C | 52% | 1015.6 hPa | 0 mm | - | - | - |
| 1777771800 | 10.56° C | 50% | 1015.5 hPa | 0 mm | - | - | - |
| 1777769400 | 11.67° C | 45% | 1015.6 hPa | 0 mm | - | - | - |
* Rain latest hour (hover to see other rain measurements)
** Current wind speed in m/s (hover to see current wind gust speed)